Time;durP1;ratioP1;P1;durP2;ratioP2;P2;SDS_P1;SDS_P2;PMS_P1;PMS_P2;Temp;Humidity;BMP_temperature;BMP_pressure;BME280_temperature;BME280_humidity;BME280_pressure;Samples;Min_cycle;Max_cycle;Signal;HPM_P1;HPM_P2
2023/07/03 00:01:16;;;;;;;8.83;6.33;;;15.60;99.90;;;;;;5069966;28;20485;-71
2023/07/03 00:03:43;;;;;;;9.93;6.60;;;15.60;99.90;;;;;;5069581;28;20454;-71
2023/07/03 00:06:10;;;;;;;15.37;8.33;;;15.60;99.90;;;;;;5110117;22;20518;-93
2023/07/03 00:08:37;;;;;;;11.27;6.90;;;15.60;99.90;;;;;;5059291;28;20459;-93
2023/07/03 00:11:05;;;;;;;15.20;7.40;;;15.60;99.90;;;;;;5062991;28;20460;-94
2023/07/03 00:13:32;;;;;;;9.93;6.13;;;15.50;99.90;;;;;;5071614;28;20459;-93
2023/07/03 00:15:59;;;;;;;11.97;6.40;;;15.50;99.90;;;;;;5069259;28;20494;-93
2023/07/03 00:18:29;;;;;;;9.83;6.40;;;15.50;99.90;;;;;;5084093;28;20463;-92
2023/07/03 00:20:56;;;;;;;12.80;7.00;;;15.40;99.90;;;;;;5085483;28;20475;-93
2023/07/03 00:23:24;;;;;;;10.63;6.63;;;15.40;99.90;;;;;;5068983;28;20471;-92
2023/07/03 00:25:51;;;;;;;10.40;6.80;;;15.40;99.90;;;;;;5069405;28;20475;-93
2023/07/03 00:28:18;;;;;;;11.97;6.53;;;15.40;99.90;;;;;;5080843;28;20442;-94
2023/07/03 00:30:45;;;;;;;14.90;7.43;;;15.40;99.90;;;;;;5096303;28;20458;-93
2023/07/03 00:33:12;;;;;;;9.03;6.03;;;15.30;99.90;;;;;;5087934;28;20465;-93
2023/07/03 00:35:40;;;;;;;8.73;6.20;;;15.30;99.90;;;;;;5097966;28;20443;-93
2023/07/03 00:38:08;;;;;;;11.60;6.93;;;15.40;99.90;;;;;;5085628;28;20523;-94
2023/07/03 00:40:35;;;;;;;13.60;6.43;;;15.30;99.90;;;;;;5079226;28;20481;-92
2023/07/03 00:43:02;;;;;;;9.40;6.80;;;15.30;99.90;;;;;;5083965;28;20464;-93
2023/07/03 00:45:29;;;;;;;12.93;7.40;;;15.40;99.90;;;;;;5079951;28;20843;-92
2023/07/03 00:47:56;;;;;;;11.00;7.17;;;15.40;99.90;;;;;;5079583;28;20927;-94
2023/07/03 00:50:23;;;;;;;13.60;7.13;;;15.40;99.90;;;;;;5078850;28;20459;-93
2023/07/03 00:52:54;;;;;;;7.27;6.27;;;15.40;99.90;;;;;;5077191;28;20958;-93
2023/07/03 00:55:22;;;;;;;12.33;6.13;;;15.50;99.90;;;;;;5068636;28;20467;-92
2023/07/03 00:57:50;;;;;;;11.83;6.90;;;15.60;99.90;;;;;;5067314;28;20476;-93
2023/07/03 01:00:17;;;;;;;9.60;6.27;;;15.60;99.90;;;;;;5082978;28;20454;-93
2023/07/03 01:02:49;;;;;;;11.30;6.33;;;15.60;99.90;;;;;;5077700;28;20462;-92
2023/07/03 01:05:20;;;;;;;11.53;7.07;;;15.70;99.90;;;;;;5069809;28;20456;-93
2023/07/03 01:07:47;;;;;;;14.07;8.23;;;15.70;99.90;;;;;;5067601;28;20572;-91
2023/07/03 01:10:19;;;;;;;13.50;6.10;;;15.80;99.90;;;;;;5069333;28;20459;-94
2023/07/03 01:12:49;;;;;;;11.73;7.43;;;15.80;99.90;;;;;;5068502;28;20463;-92
2023/07/03 01:15:20;;;;;;;8.93;6.10;;;15.90;99.90;;;;;;5066322;28;20464;-91
2023/07/03 01:17:50;;;;;;;13.97;7.03;;;15.90;99.90;;;;;;5065827;28;20494;-93
2023/07/03 01:20:19;;;;;;;13.33;6.80;;;15.90;99.90;;;;;;5077147;28;20470;-93
2023/07/03 01:22:54;;;;;;;11.60;6.93;;;16.00;99.90;;;;;;5076820;28;20527;-93
2023/07/03 01:25:24;;;;;;;12.27;7.03;;;15.90;99.90;;;;;;5077196;28;20446;-92
2023/07/03 01:27:53;;;;;;;13.13;6.73;;;16.00;99.90;;;;;;5076033;28;20472;-93
2023/07/03 01:30:21;;;;;;;8.43;5.90;;;16.00;99.90;;;;;;5069249;28;20945;-92
2023/07/03 01:32:52;;;;;;;12.20;7.40;;;16.00;99.90;;;;;;5066528;28;20460;-94
2023/07/03 01:35:20;;;;;;;8.53;5.90;;;16.10;99.90;;;;;;5064349;28;20455;-91
2023/07/03 01:37:50;;;;;;;10.90;6.33;;;16.10;99.90;;;;;;5066251;28;20487;-91
2023/07/03 01:40:23;;;;;;;12.03;6.50;;;16.10;99.90;;;;;;5062788;28;20459;-92
2023/07/03 01:42:53;;;;;;;9.87;5.70;;;16.10;99.90;;;;;;5063416;28;20458;-92
2023/07/03 01:45:22;;;;;;;13.93;5.90;;;16.20;99.90;;;;;;5077613;28;20420;-91
2023/07/03 01:47:49;;;;;;;12.77;6.93;;;16.20;99.90;;;;;;5076470;28;20467;-92
2023/07/03 01:50:22;;;;;;;9.93;6.70;;;16.30;99.90;;;;;;5077486;28;20447;-92
2023/07/03 01:52:54;;;;;;;13.33;6.90;;;16.20;99.90;;;;;;5077332;28;20439;-94
2023/07/03 01:55:29;;;;;;;10.40;7.50;;;16.20;99.90;;;;;;5077254;28;20519;-90
2023/07/03 01:58:07;;;;;;;12.70;6.33;;;16.30;99.90;;;;;;5077168;28;20526;-91
2023/07/03 02:00:44;;;;;;;13.73;6.37;;;16.30;99.90;;;;;;5077210;28;20490;-92
2023/07/03 02:03:23;;;;;;;14.90;6.40;;;16.30;99.90;;;;;;5074154;28;20462;-93
2023/07/03 02:05:52;;;;;;;9.20;6.30;;;16.40;99.90;;;;;;5035312;28;1154753;-91
2023/07/03 02:08:22;;;;;;;11.00;6.57;;;16.40;99.90;;;;;;5070668;28;20554;-92
2023/07/03 02:10:51;;;;;;;13.80;6.10;;;16.40;99.90;;;;;;5061851;28;20970;-92
2023/07/03 02:13:20;;;;;;;12.60;6.30;;;16.40;99.90;;;;;;5062589;28;20503;-92
2023/07/03 02:15:49;;;;;;;11.10;6.43;;;16.40;99.90;;;;;;5062934;28;20988;-93
2023/07/03 02:18:23;;;;;;;12.27;6.37;;;16.40;99.90;;;;;;5061171;28;20486;-93
2023/07/03 02:20:54;;;;;;;9.97;6.37;;;16.40;99.90;;;;;;5061685;28;20550;-92
2023/07/03 02:23:23;;;;;;;11.87;7.40;;;16.40;99.90;;;;;;5062701;28;20510;-92
2023/07/03 02:25:51;;;;;;;8.63;5.63;;;16.40;99.90;;;;;;5063786;28;20486;-93
2023/07/03 02:28:20;;;;;;;13.57;6.33;;;16.40;99.90;;;;;;5063068;28;20534;-92
2023/07/03 02:30:46;;;;;;;9.60;6.37;;;16.40;99.90;;;;;;5062992;28;21046;-92
2023/07/03 02:33:15;;;;;;;11.93;6.40;;;16.40;99.90;;;;;;5063677;28;20558;-92
2023/07/03 02:35:48;;;;;;;15.93;6.63;;;16.40;99.90;;;;;;5064362;28;20493;-93
2023/07/03 02:38:15;;;;;;;10.57;6.07;;;16.50;99.90;;;;;;5065145;28;20473;-92
2023/07/03 02:40:51;;;;;;;9.20;5.90;;;16.40;99.90;;;;;;5063734;28;20455;-93
2023/07/03 02:43:19;;;;;;;11.07;6.23;;;16.50;99.90;;;;;;5068744;28;20482;-92
2023/07/03 02:45:46;;;;;;;17.17;7.20;;;16.40;99.90;;;;;;5071861;28;20448;-91
2023/07/03 02:48:41;;;;;;;11.13;5.90;;;16.50;99.90;;;;;;5068028;28;20522;-93
2023/07/03 02:53:54;;;;;;;10.40;6.33;;;16.40;99.90;;;;;;5066304;28;20469;-92
2023/07/03 02:56:30;;;;;;;13.87;7.00;;;16.50;99.90;;;;;;5064560;28;20555;-93
2023/07/03 02:58:58;;;;;;;8.60;5.90;;;16.40;99.90;;;;;;5061399;28;20513;-92
2023/07/03 03:01:33;;;;;;;9.10;6.47;;;16.40;99.90;;;;;;5062161;28;20486;-92
2023/07/03 03:07:07;;;;;;;9.07;6.20;;;16.40;99.90;;;;;;5060500;28;20531;-93
2023/07/03 03:09:34;;;;;;;12.63;7.30;;;16.40;99.90;;;;;;5063132;28;20485;-93
2023/07/03 03:14:57;;;;;;;10.30;6.00;;;16.40;99.90;;;;;;5059712;28;20894;-92
2023/07/03 03:17:27;;;;;;;12.30;6.27;;;16.40;99.90;;;;;;5060700;28;20490;-92
2023/07/03 03:22:34;;;;;;;10.70;6.20;;;16.40;99.90;;;;;;5071106;28;20467;-93
2023/07/03 03:25:06;;;;;;;6.93;5.30;;;16.40;99.90;;;;;;5074049;28;20513;-93
2023/07/03 03:27:43;;;;;;;9.20;5.90;;;16.40;99.90;;;;;;5064413;28;20479;-92
2023/07/03 03:30:31;;;;;;;;;;;;;;;;;;;;;
2023/07/03 03:33:13;;;;;;;7.67;5.40;;;16.50;99.90;;;;;;5070164;28;20473;-94
2023/07/03 03:35:44;;;;;;;11.10;6.00;;;16.50;99.90;;;;;;5056993;28;20460;-93
2023/07/03 03:47:30;;;;;;;8.30;6.20;;;16.60;99.90;;;;;;5022259;28;20452;-92
2023/07/03 03:49:59;;;;;;;13.43;5.90;;;16.60;99.90;;;;;;5065708;28;20975;-93
2023/07/03 03:52:26;;;;;;;9.37;6.43;;;16.60;99.90;;;;;;5062779;28;20554;-93
2023/07/03 03:54:53;;;;;;;12.30;6.73;;;16.70;99.90;;;;;;5056160;28;20494;-90
2023/07/03 03:57:19;;;;;;;11.00;6.50;;;16.70;99.90;;;;;;5056717;28;20486;-90
2023/07/03 03:59:46;;;;;;;9.80;5.53;;;16.70;99.90;;;;;;5056765;28;20468;-90
2023/07/03 04:02:13;;;;;;;8.70;6.03;;;16.70;99.90;;;;;;5056064;28;20479;-90
2023/07/03 04:04:41;;;;;;;13.80;7.03;;;16.70;99.90;;;;;;5056185;28;20451;-90
2023/07/03 04:07:08;;;;;;;8.70;5.33;;;16.70;99.90;;;;;;5055557;28;20486;-90
2023/07/03 04:09:34;;;;;;;11.33;7.63;;;16.60;99.90;;;;;;5055975;28;20834;-92
2023/07/03 04:12:02;;;;;;;7.20;5.07;;;16.60;99.90;;;;;;5056063;28;20459;-92
2023/07/03 04:14:29;;;;;;;9.93;6.27;;;16.60;99.90;;;;;;5056325;28;20463;-91
2023/07/03 04:16:57;;;;;;;10.93;6.23;;;16.60;99.90;;;;;;5055599;28;20480;-91
2023/07/03 04:19:24;;;;;;;10.40;6.70;;;16.60;99.90;;;;;;5055858;28;20459;-91
2023/07/03 04:21:52;;;;;;;11.33;6.10;;;16.60;99.90;;;;;;5055105;28;21019;-91
2023/07/03 04:24:19;;;;;;;13.13;6.90;;;16.60;99.90;;;;;;5055282;28;20964;-91
2023/07/03 04:26:46;;;;;;;13.80;6.90;;;16.60;99.90;;;;;;5054938;28;20919;-90
2023/07/03 04:29:13;;;;;;;10.30;6.57;;;16.60;99.90;;;;;;5055544;28;20962;-90
2023/07/03 04:31:39;;;;;;;8.90;6.13;;;16.60;99.90;;;;;;5054890;28;20456;-90
2023/07/03 04:34:06;;;;;;;7.33;5.70;;;16.60;99.90;;;;;;5055245;28;20937;-91
2023/07/03 04:36:33;;;;;;;8.27;5.50;;;16.60;99.90;;;;;;5054957;28;20471;-91
2023/07/03 04:39:02;;;;;;;7.33;5.77;;;16.70;99.90;;;;;;5055097;28;20562;-90
2023/07/03 04:41:29;;;;;;;9.30;5.93;;;16.60;99.90;;;;;;5054995;28;20463;-91
2023/07/03 04:43:58;;;;;;;7.40;5.30;;;16.60;99.90;;;;;;5054859;28;20464;-91
2023/07/03 04:46:26;;;;;;;10.40;5.87;;;16.60;99.90;;;;;;5055290;28;20586;-90
2023/07/03 04:48:53;;;;;;;9.50;6.70;;;16.60;99.90;;;;;;5054832;28;20529;-90
2023/07/03 04:51:20;;;;;;;9.03;5.80;;;16.70;99.90;;;;;;5054882;28;20952;-91
2023/07/03 04:53:48;;;;;;;12.13;6.63;;;16.70;99.90;;;;;;5054864;28;20467;-91
2023/07/03 04:56:16;;;;;;;8.10;4.70;;;16.70;99.90;;;;;;5053511;28;20475;-90
2023/07/03 04:58:43;;;;;;;8.13;5.93;;;16.70;99.90;;;;;;5054746;28;20521;-90
2023/07/03 05:01:11;;;;;;;7.60;5.13;;;16.70;99.90;;;;;;5054735;28;20474;-91
2023/07/03 05:03:39;;;;;;;8.43;6.20;;;16.80;99.90;;;;;;5054547;28;20483;-90
2023/07/03 05:06:06;;;;;;;11.90;6.03;;;16.80;99.90;;;;;;5054768;28;20487;-90
2023/07/03 05:08:32;;;;;;;7.47;5.47;;;16.80;99.90;;;;;;5054609;28;20471;-90
2023/07/03 05:10:59;;;;;;;8.83;6.13;;;16.90;99.90;;;;;;5054752;28;20497;-90
2023/07/03 05:13:27;;;;;;;8.50;5.83;;;16.90;99.90;;;;;;5054714;28;20456;-89
2023/07/03 05:15:55;;;;;;;13.57;6.60;;;16.90;99.90;;;;;;5055524;28;21000;-89
2023/07/03 05:18:22;;;;;;;9.70;6.57;;;16.90;99.90;;;;;;5055069;28;20470;-90
2023/07/03 05:20:49;;;;;;;7.70;5.27;;;17.00;99.90;;;;;;5055931;28;20834;-91
2023/07/03 05:23:17;;;;;;;10.73;5.80;;;17.00;99.90;;;;;;5056021;28;20486;-90
2023/07/03 05:25:46;;;;;;;8.43;5.50;;;17.00;99.90;;;;;;5055659;28;20452;-90
2023/07/03 05:28:12;;;;;;;10.40;5.83;;;17.00;99.90;;;;;;5056010;28;20478;-91
2023/07/03 05:30:41;;;;;;;9.43;6.10;;;17.00;99.90;;;;;;5056777;28;20463;-90
2023/07/03 05:33:08;;;;;;;9.57;5.70;;;17.00;99.90;;;;;;5054656;28;20543;-91
2023/07/03 05:35:34;;;;;;;7.57;5.60;;;17.00;99.90;;;;;;5060725;28;20456;-90
2023/07/03 05:38:01;;;;;;;8.70;5.70;;;17.00;99.90;;;;;;5060984;28;20463;-90
2023/07/03 05:40:28;;;;;;;10.00;6.13;;;17.10;99.90;;;;;;5067165;28;20463;-89
2023/07/03 05:42:55;;;;;;;7.50;4.80;;;17.10;99.90;;;;;;5066796;28;20514;-91
2023/07/03 05:45:22;;;;;;;7.23;5.10;;;17.20;99.90;;;;;;5064109;28;20456;-90
2023/07/03 05:47:50;;;;;;;8.50;5.93;;;17.20;99.90;;;;;;5056648;28;20486;-90
2023/07/03 05:50:17;;;;;;;8.20;5.90;;;17.30;99.90;;;;;;5055193;28;20459;-89
2023/07/03 05:52:44;;;;;;;7.50;5.20;;;17.30;99.90;;;;;;5054675;28;20833;-90
2023/07/03 05:55:11;;;;;;;9.57;5.70;;;17.30;99.90;;;;;;5053821;28;20463;-90
2023/07/03 05:57:38;;;;;;;9.17;5.00;;;17.30;99.90;;;;;;5053389;28;20999;-91
2023/07/03 06:00:12;;;;;;;7.73;4.90;;;17.30;99.90;;;;;;5053689;28;20834;-90
2023/07/03 06:02:40;;;;;;;6.97;5.20;;;17.40;99.90;;;;;;5054414;28;20483;-92
2023/07/03 06:05:09;;;;;;;7.40;5.90;;;17.40;99.90;;;;;;5054148;28;20486;-91
2023/07/03 06:10:04;;;;;;;8.23;5.03;;;17.40;99.90;;;;;;5029497;28;20477;-71
2023/07/03 06:12:31;;;;;;;8.10;5.33;;;17.40;99.90;;;;;;5030766;28;20460;-72
2023/07/03 06:14:58;;;;;;;9.90;5.40;;;17.40;99.90;;;;;;5029278;28;20475;-72
2023/07/03 06:17:25;;;;;;;9.43;4.60;;;17.50;99.90;;;;;;5036537;28;20511;-72
2023/07/03 06:19:51;;;;;;;8.10;5.60;;;17.50;99.90;;;;;;5033547;28;20496;-71
2023/07/03 06:22:20;;;;;;;6.83;4.60;;;17.50;99.90;;;;;;5036045;28;20484;-72
2023/07/03 06:24:46;;;;;;;6.60;4.87;;;17.60;99.90;;;;;;5042045;28;20463;-71
2023/07/03 06:27:14;;;;;;;5.70;4.23;;;17.60;99.90;;;;;;5030756;28;20484;-72
2023/07/03 06:29:41;;;;;;;7.30;4.80;;;17.70;99.90;;;;;;5039255;28;20464;-72
2023/07/03 06:32:10;;;;;;;8.00;5.80;;;17.70;99.90;;;;;;5038849;28;20465;-72
2023/07/03 06:34:37;;;;;;;6.97;4.70;;;17.70;99.90;;;;;;5039168;28;20849;-72
2023/07/03 06:37:05;;;;;;;9.17;5.17;;;17.70;99.90;;;;;;5038276;28;21175;-71
2023/07/03 06:39:33;;;;;;;8.23;4.83;;;17.80;99.90;;;;;;5030860;28;20460;-71
2023/07/03 06:42:00;;;;;;;8.17;4.87;;;17.80;99.90;;;;;;5030408;28;20951;-72
2023/07/03 06:44:28;;;;;;;6.67;5.00;;;17.90;99.90;;;;;;5030793;28;20460;-72
2023/07/03 06:46:55;;;;;;;9.27;4.90;;;17.90;99.90;;;;;;5037859;28;20582;-72
2023/07/03 06:49:24;;;;;;;8.70;5.40;;;17.90;99.90;;;;;;5038734;28;20457;-72
2023/07/03 06:51:51;;;;;;;9.80;4.60;;;18.00;99.90;;;;;;5038171;28;20493;-72
2023/07/03 06:54:18;;;;;;;7.47;5.10;;;17.90;99.90;;;;;;5038966;28;20460;-72
2023/07/03 06:56:46;;;;;;;12.50;5.60;;;18.00;99.90;;;;;;5038763;28;20540;-72
2023/07/03 06:59:13;;;;;;;8.27;5.07;;;18.00;99.90;;;;;;5038753;28;20486;-72
2023/07/03 07:01:40;;;;;;;7.17;4.90;;;18.00;99.90;;;;;;5030693;28;20456;-72
2023/07/03 07:04:07;;;;;;;6.40;4.93;;;18.10;99.90;;;;;;5038428;28;20483;-72
2023/07/03 07:06:34;;;;;;;6.60;4.43;;;18.10;99.90;;;;;;5038389;28;20469;-72
2023/07/03 07:09:01;;;;;;;7.83;4.43;;;18.20;99.90;;;;;;5038574;28;20496;-72
2023/07/03 07:11:30;;;;;;;6.20;4.83;;;18.20;99.90;;;;;;5028844;28;20466;-72
2023/07/03 07:14:00;;;;;;;11.83;5.20;;;18.20;99.90;;;;;;5024248;28;20456;-72
2023/07/03 07:16:30;;;;;;;5.43;4.23;;;18.20;99.90;;;;;;5025904;28;20464;-72
2023/07/03 07:19:00;;;;;;;7.90;4.30;;;18.30;99.90;;;;;;5023950;28;20538;-72
2023/07/03 07:21:27;;;;;;;9.90;5.53;;;18.30;99.90;;;;;;5032356;28;20495;-72
2023/07/03 07:23:55;;;;;;;8.20;5.07;;;18.40;99.90;;;;;;5030073;28;20477;-72
2023/07/03 07:26:24;;;;;;;6.50;5.23;;;18.40;99.90;;;;;;5030121;28;20466;-72
2023/07/03 07:28:51;;;;;;;8.33;5.20;;;18.50;99.90;;;;;;5032655;28;20492;-72
2023/07/03 07:31:23;;;;;;;7.67;4.70;;;18.50;99.90;;;;;;5042272;28;20469;-71
2023/07/03 07:33:50;;;;;;;7.40;4.63;;;18.40;99.90;;;;;;5041544;28;20934;-72
2023/07/03 07:36:21;;;;;;;8.30;4.70;;;18.40;99.90;;;;;;5033389;28;20468;-72
2023/07/03 07:38:49;;;;;;;9.43;4.60;;;18.50;99.90;;;;;;5041590;28;20476;-71
2023/07/03 07:41:16;;;;;;;7.10;4.77;;;18.50;99.90;;;;;;5032671;28;21202;-71
2023/07/03 07:43:43;;;;;;;5.63;4.27;;;18.60;99.90;;;;;;5042010;28;20477;-71
2023/07/03 07:46:10;;;;;;;6.40;4.83;;;18.60;99.90;;;;;;5041634;28;20565;-72
2023/07/03 07:48:38;;;;;;;7.53;4.57;;;18.60;99.90;;;;;;5033198;28;20512;-69
2023/07/03 07:51:09;;;;;;;6.83;4.87;;;18.70;99.90;;;;;;5036413;28;20467;-70
2023/07/03 07:53:36;;;;;;;6.10;4.57;;;18.70;99.90;;;;;;5044814;28;20555;-70
2023/07/03 07:56:03;;;;;;;9.77;4.83;;;18.70;99.90;;;;;;5035925;28;20468;-72
2023/07/03 07:58:30;;;;;;;8.97;4.40;;;18.80;99.90;;;;;;5044101;28;20485;-72
2023/07/03 08:00:57;;;;;;;7.80;4.87;;;18.80;99.90;;;;;;5036266;28;20493;-71
2023/07/03 08:03:25;;;;;;;7.47;4.70;;;19.00;99.90;;;;;;5038437;28;20469;-71
2023/07/03 08:05:58;;;;;;;11.40;4.80;;;19.10;99.90;;;;;;5041730;28;20498;-71
2023/07/03 08:08:26;;;;;;;6.13;4.33;;;19.10;99.90;;;;;;5038495;28;20495;-72
2023/07/03 08:10:53;;;;;;;7.07;4.50;;;19.10;99.90;;;;;;5031955;28;20549;-71
2023/07/03 08:13:20;;;;;;;8.60;5.70;;;19.10;99.90;;;;;;5032773;28;20840;-70
2023/07/03 08:15:48;;;;;;;8.50;4.60;;;19.00;99.90;;;;;;5040880;28;20462;-71
2023/07/03 08:18:16;;;;;;;7.00;4.20;;;19.00;99.90;;;;;;5039135;28;20502;-70
2023/07/03 08:20:42;;;;;;;9.63;4.90;;;19.10;99.90;;;;;;5040466;28;20465;-70
2023/07/03 08:23:11;;;;;;;7.77;4.87;;;19.10;99.90;;;;;;5035100;28;20494;-70
2023/07/03 08:25:38;;;;;;;9.10;4.40;;;19.00;99.90;;;;;;5035723;28;20960;-71
2023/07/03 08:28:05;;;;;;;6.27;4.30;;;19.00;99.90;;;;;;5039596;28;20498;-69
2023/07/03 08:30:32;;;;;;;5.47;4.40;;;19.10;99.90;;;;;;5040184;28;20958;-72
2023/07/03 08:32:59;;;;;;;8.00;5.10;;;19.10;99.90;;;;;;5039553;28;20456;-71
2023/07/03 08:35:25;;;;;;;9.73;5.57;;;19.10;99.90;;;;;;5037190;28;20457;-71
2023/07/03 08:37:52;;;;;;;8.40;4.67;;;19.10;99.90;;;;;;5033542;28;20495;-71
2023/07/03 08:40:22;;;;;;;7.23;4.60;;;19.10;99.90;;;;;;5039675;28;20466;-71
2023/07/03 08:42:53;;;;;;;7.43;5.07;;;19.20;99.90;;;;;;5039641;28;20849;-71
2023/07/03 08:45:23;;;;;;;6.90;4.13;;;19.30;99.90;;;;;;5036483;28;20780;-70
2023/07/03 08:47:52;;;;;;;7.40;4.43;;;19.50;99.90;;;;;;5041410;28;20489;-71
2023/07/03 08:50:22;;;;;;;6.97;5.33;;;19.60;99.90;;;;;;5031684;28;20829;-71
2023/07/03 08:52:54;;;;;;;7.33;4.63;;;19.60;99.90;;;;;;5039533;28;20466;-71
2023/07/03 08:55:27;;;;;;;7.10;4.57;;;19.50;99.90;;;;;;5039182;28;20466;-71
2023/07/03 08:57:54;;;;;;;6.57;4.57;;;19.30;99.90;;;;;;5039208;28;20994;-70
2023/07/03 09:00:22;;;;;;;6.73;4.10;;;19.30;99.90;;;;;;5039340;28;20471;-71
2023/07/03 09:02:56;;;;;;;9.23;5.33;;;19.20;99.90;;;;;;5031091;28;20844;-71
2023/07/03 09:05:35;;;;;;;8.00;4.43;;;19.20;99.90;;;;;;5037724;28;21168;-72
2023/07/03 09:08:06;;;;;;;10.40;5.80;;;19.20;99.90;;;;;;5039006;28;20495;-71
2023/07/03 09:10:38;;;;;;;12.43;5.37;;;19.30;99.90;;;;;;5037377;28;20471;-71
2023/07/03 09:13:09;;;;;;;9.03;4.67;;;19.50;99.90;;;;;;5031495;28;20462;-71
2023/07/03 09:15:42;;;;;;;7.90;4.23;;;19.70;99.90;;;;;;5030924;28;20464;-70
2023/07/03 09:18:13;;;;;;;5.93;4.03;;;19.90;99.90;;;;;;5030514;28;20487;-72
2023/07/03 09:20:41;;;;;;;5.80;4.90;;;20.00;99.90;;;;;;5038396;28;20460;-70
2023/07/03 09:23:14;;;;;;;7.70;4.47;;;20.00;99.90;;;;;;5039282;28;20546;-71
2023/07/03 09:25:46;;;;;;;7.47;4.20;;;20.00;99.90;;;;;;5038166;28;20491;-71
2023/07/03 09:28:13;;;;;;;11.27;4.63;;;19.90;99.90;;;;;;5023169;28;20480;-71
2023/07/03 09:30:40;;;;;;;7.23;4.60;;;19.90;99.90;;;;;;5039007;28;20471;-71
2023/07/03 09:33:07;;;;;;;8.30;5.17;;;19.90;99.90;;;;;;5033390;28;20463;-71
2023/07/03 09:35:36;;;;;;;8.13;4.13;;;19.90;99.90;;;;;;5035446;28;20495;-71
2023/07/03 09:38:05;;;;;;;11.57;4.37;;;20.10;99.90;;;;;;5038143;28;20490;-70
2023/07/03 09:40:35;;;;;;;7.40;4.47;;;20.20;99.90;;;;;;5038439;28;20472;-71
2023/07/03 09:43:04;;;;;;;5.40;4.30;;;20.30;99.90;;;;;;5037929;28;20471;-70
2023/07/03 09:45:33;;;;;;;6.27;4.00;;;20.40;99.90;;;;;;5038766;28;20855;-71
2023/07/03 09:48:02;;;;;;;7.00;3.90;;;20.60;99.90;;;;;;5037886;28;21029;-71
2023/07/03 09:50:32;;;;;;;5.87;4.33;;;20.80;99.00;;;;;;5030082;28;20467;-71
2023/07/03 09:52:59;;;;;;;7.30;4.20;;;20.70;99.90;;;;;;5041154;28;20474;-70
2023/07/03 09:55:27;;;;;;;7.83;3.73;;;20.60;99.80;;;;;;5036487;28;20461;-71
2023/07/03 09:57:54;;;;;;;5.40;4.27;;;20.60;99.90;;;;;;5039377;28;20519;-71
2023/07/03 10:00:25;;;;;;;5.80;3.70;;;20.50;99.90;;;;;;5037039;28;20469;-70
2023/07/03 10:02:55;;;;;;;6.77;3.77;;;20.50;99.90;;;;;;5037968;28;20467;-71
2023/07/03 10:05:29;;;;;;;5.43;3.90;;;20.50;99.90;;;;;;5029910;28;20461;-71
2023/07/03 10:08:01;;;;;;;6.10;4.57;;;20.60;99.90;;;;;;5037349;28;20478;-71
2023/07/03 10:10:31;;;;;;;5.33;3.37;;;20.60;99.90;;;;;;5038462;28;20526;-71
2023/07/03 10:13:04;;;;;;;6.07;4.40;;;20.70;99.90;;;;;;5037932;28;20459;-71
2023/07/03 10:15:37;;;;;;;5.73;4.10;;;20.80;99.90;;;;;;5037578;28;20472;-71
2023/07/03 10:18:07;;;;;;;9.07;4.60;;;20.80;99.90;;;;;;5037949;28;20487;-71
2023/07/03 10:20:39;;;;;;;8.77;4.40;;;20.80;99.90;;;;;;5029818;28;20840;-71
2023/07/03 10:23:10;;;;;;;11.00;4.33;;;20.80;99.90;;;;;;5032154;28;20566;-71
2023/07/03 10:25:40;;;;;;;6.17;3.60;;;20.90;99.90;;;;;;5033904;28;20475;-71
2023/07/03 10:28:12;;;;;;;8.17;4.27;;;21.00;99.90;;;;;;5038076;28;20494;-71
2023/07/03 10:30:40;;;;;;;5.70;4.03;;;21.30;99.60;;;;;;5036671;28;20844;-71
2023/07/03 10:33:11;;;;;;;5.97;3.70;;;21.50;99.90;;;;;;5033041;28;20464;-71
2023/07/03 10:35:42;;;;;;;6.87;3.43;;;21.80;99.60;;;;;;5033759;28;20464;-71
2023/07/03 10:38:16;;;;;;;4.90;3.90;;;21.90;99.10;;;;;;5032028;28;20553;-71
2023/07/03 10:40:52;;;;;;;5.03;3.30;;;21.90;98.80;;;;;;5031988;28;20469;-71
2023/07/03 10:43:21;;;;;;;5.77;3.70;;;21.60;97.80;;;;;;5030636;28;20521;-71
2023/07/03 10:45:50;;;;;;;4.97;3.33;;;21.50;98.00;;;;;;5038146;28;20488;-71
2023/07/03 10:48:20;;;;;;;3.70;2.30;;;21.60;98.20;;;;;;5037524;28;20542;-71
2023/07/03 10:50:57;;;;;;;3.30;2.70;;;21.60;98.10;;;;;;5037596;28;20466;-71
2023/07/03 10:53:31;;;;;;;4.37;3.00;;;21.60;97.80;;;;;;5038418;28;20832;-71
2023/07/03 10:56:05;;;;;;;5.90;3.17;;;21.50;97.10;;;;;;5029387;28;20471;-71
2023/07/03 10:58:39;;;;;;;5.60;3.60;;;21.40;97.30;;;;;;5029896;28;20491;-71
2023/07/03 11:01:15;;;;;;;4.00;2.67;;;21.30;98.00;;;;;;5037906;28;20482;-71
2023/07/03 11:03:48;;;;;;;5.00;2.87;;;21.10;97.90;;;;;;5037649;28;20492;-71
2023/07/03 11:06:19;;;;;;;3.87;2.50;;;21.00;97.80;;;;;;5037994;28;20834;-70
2023/07/03 11:08:53;;;;;;;3.30;2.40;;;21.00;97.90;;;;;;5037438;28;20484;-71
2023/07/03 11:11:32;;;;;;;3.40;2.60;;;21.00;98.10;;;;;;5034857;28;20463;-71
2023/07/03 11:14:06;;;;;;;4.67;2.93;;;21.30;99.90;;;;;;5039090;28;20522;-71
2023/07/03 11:16:44;;;;;;;3.90;2.40;;;21.40;99.10;;;;;;5037522;28;20478;-70
2023/07/03 11:19:22;;;;;;;4.93;2.80;;;21.60;98.70;;;;;;5030291;28;20464;-71
2023/07/03 11:21:57;;;;;;;2.53;2.33;;;21.70;99.00;;;;;;5037569;28;20456;-70
2023/07/03 11:24:31;;;;;;;4.10;3.17;;;22.00;99.00;;;;;;5035348;28;20501;-71
2023/07/03 11:27:05;;;;;;;4.70;2.70;;;22.20;99.40;;;;;;5032038;28;20469;-71
2023/07/03 11:29:34;;;;;;;3.30;2.63;;;22.20;98.70;;;;;;5034715;28;20460;-71
2023/07/03 11:32:05;;;;;;;3.10;2.60;;;22.20;99.10;;;;;;5039997;28;20460;-71
2023/07/03 11:34:33;;;;;;;3.03;2.67;;;22.20;97.90;;;;;;5035219;28;20572;-71
2023/07/03 11:37:00;;;;;;;3.20;2.47;;;22.10;97.70;;;;;;5028963;28;21070;-71
2023/07/03 11:39:29;;;;;;;3.63;2.60;;;22.10;98.20;;;;;;5029563;28;20511;-71
2023/07/03 11:42:12;;;;;;;3.53;2.53;;;22.00;97.80;;;;;;5029352;28;21083;-71
2023/07/03 11:44:40;;;;;;;5.20;2.33;;;22.00;97.70;;;;;;5029313;28;20526;-71
2023/07/03 11:47:12;;;;;;;3.97;2.43;;;22.00;98.70;;;;;;5028994;28;20485;-73
2023/07/03 11:49:45;;;;;;;4.70;2.93;;;21.90;97.90;;;;;;5029942;28;20504;-71
2023/07/03 11:52:14;;;;;;;3.77;3.07;;;21.90;98.30;;;;;;5029078;28;20493;-71
2023/07/03 11:54:43;;;;;;;4.70;2.90;;;21.80;98.10;;;;;;5037800;28;20491;-70
2023/07/03 11:57:26;;;;;;;5.30;2.80;;;21.70;97.30;;;;;;5032635;28;20505;-70
2023/07/03 11:59:53;;;;;;;4.23;3.10;;;21.70;98.90;;;;;;5031693;28;20462;-71
2023/07/03 12:02:47;;;;;;;4.17;2.60;;;21.70;99.40;;;;;;5037898;28;20469;-71
2023/07/03 12:05:52;;;;;;;4.00;2.97;;;21.70;99.60;;;;;;5026777;28;20481;-70
2023/07/03 12:08:42;;;;;;;5.50;2.70;;;22.00;99.90;;;;;;5044445;28;20486;-71
2023/07/03 12:11:11;;;;;;;5.63;2.90;;;22.10;99.80;;;;;;5041388;28;20531;-70
2023/07/03 12:13:54;;;;;;;2.73;2.47;;;22.10;99.20;;;;;;5039808;28;20518;-70
2023/07/03 12:16:27;;;;;;;6.30;3.13;;;22.20;99.70;;;;;;5037493;28;20933;-71
2023/07/03 12:19:02;;;;;;;5.57;2.57;;;22.10;99.50;;;;;;5032930;28;20483;-71
2023/07/03 12:21:41;;;;;;;3.70;2.90;;;22.00;99.20;;;;;;5038947;28;20461;-71
2023/07/03 12:24:27;;;;;;;6.33;2.80;;;21.90;99.30;;;;;;5036323;28;20479;-71
2023/07/03 12:27:01;;;;;;;4.63;2.97;;;21.90;98.90;;;;;;5035482;28;20475;-70
2023/07/03 12:29:29;;;;;;;4.13;3.57;;;22.00;99.20;;;;;;5038663;28;20456;-71
2023/07/03 12:31:58;;;;;;;5.20;3.20;;;22.10;99.90;;;;;;5040772;28;20456;-71
2023/07/03 12:34:27;;;;;;;4.57;3.37;;;22.40;99.90;;;;;;5032992;28;20467;-70
2023/07/03 12:37:00;;;;;;;7.77;3.87;;;22.50;99.90;;;;;;5039804;28;20860;-70
2023/07/03 12:39:27;;;;;;;6.37;3.73;;;22.40;99.90;;;;;;5040218;28;20515;-70
2023/07/03 12:41:54;;;;;;;3.90;3.20;;;22.40;99.90;;;;;;5040569;28;20810;-71
2023/07/03 12:44:24;;;;;;;6.20;3.07;;;22.30;99.90;;;;;;5037001;28;20530;-71
2023/07/03 12:46:52;;;;;;;4.63;3.20;;;22.20;99.90;;;;;;5035009;28;20466;-71
2023/07/03 12:49:20;;;;;;;4.03;3.20;;;22.20;99.90;;;;;;5044461;28;20463;-70
2023/07/03 12:51:52;;;;;;;4.43;3.20;;;22.30;99.90;;;;;;5043504;28;20494;-70
2023/07/03 12:54:21;;;;;;;5.87;3.23;;;22.50;99.90;;;;;;5037320;28;20469;-70
2023/07/03 12:56:49;;;;;;;5.20;3.00;;;22.40;99.90;;;;;;5035046;28;20492;-71
2023/07/03 12:59:18;;;;;;;3.20;2.43;;;22.40;99.90;;;;;;5040452;28;20977;-71
2023/07/03 13:01:49;;;;;;;4.40;3.10;;;22.60;98.70;;;;;;5040417;28;20964;-69
2023/07/03 13:04:25;;;;;;;4.47;3.23;;;22.80;99.90;;;;;;5036016;28;20994;-71
2023/07/03 13:06:54;;;;;;;4.07;2.77;;;23.00;99.90;;;;;;5034730;28;20463;-71
2023/07/03 13:09:21;;;;;;;3.47;2.77;;;23.20;99.90;;;;;;5038950;28;20471;-72
2023/07/03 13:11:48;;;;;;;3.60;2.33;;;23.40;99.40;;;;;;5040181;28;20538;-71
2023/07/03 13:14:17;;;;;;;5.73;2.80;;;23.60;96.70;;;;;;5040065;28;20467;-71
2023/07/03 13:16:46;;;;;;;3.10;2.13;;;23.60;97.70;;;;;;5038964;28;20485;-72
2023/07/03 13:19:25;;;;;;;2.40;2.17;;;23.60;98.30;;;;;;5029242;28;20493;-71
2023/07/03 13:21:54;;;;;;;3.50;3.00;;;23.60;98.40;;;;;;5034880;28;20514;-72